createdAt,value
2024-01-15T00:00:43.077Z,57.29
2024-01-15T00:01:43.108Z,58.74
2024-01-15T00:02:43.146Z,58.58
2024-01-15T00:03:45.041Z,58.04
2024-01-15T00:04:43.201Z,59.38
2024-01-15T00:05:43.192Z,59.80
2024-01-15T00:06:43.275Z,60.09
2024-01-15T00:07:43.150Z,59.41
2024-01-15T00:08:43.136Z,59.64
2024-01-15T00:09:43.151Z,60.63
2024-01-15T00:10:43.122Z,59.71
2024-01-15T00:11:43.124Z,57.88
2024-01-15T00:12:43.196Z,60.10
2024-01-15T00:13:43.111Z,57.28
2024-01-15T00:14:43.101Z,58.30
2024-01-15T00:15:43.177Z,56.06
2024-01-15T00:16:43.090Z,59.35
2024-01-15T00:17:43.404Z,57.94
2024-01-15T00:18:43.212Z,58.99
2024-01-15T00:19:43.195Z,57.79
2024-01-15T00:20:43.051Z,57.87
2024-01-15T00:21:43.188Z,57.85
2024-01-15T00:22:43.053Z,59.23
2024-01-15T00:23:43.025Z,59.97
2024-01-15T00:24:43.109Z,59.23
2024-01-15T00:25:43.035Z,57.80
2024-01-15T00:26:43.024Z,57.32
2024-01-15T00:27:43.133Z,59.42
2024-01-15T00:28:42.983Z,57.23
2024-01-15T00:29:42.975Z,58.20
2024-01-15T00:30:43.049Z,57.59
2024-01-15T00:31:43.294Z,60.67
2024-01-15T00:32:43.017Z,59.13
2024-01-15T00:33:43.097Z,58.67
2024-01-15T00:34:43.027Z,59.83
2024-01-15T00:35:42.894Z,57.36
2024-01-15T00:36:42.908Z,58.85
2024-01-15T00:37:42.889Z,59.71
2024-01-15T00:38:42.851Z,60.19
2024-01-15T00:39:42.893Z,59.00
2024-01-15T00:40:42.910Z,58.00
2024-01-15T00:41:42.950Z,59.32
2024-01-15T00:42:43.008Z,57.97
2024-01-15T00:43:43.041Z,58.94
2024-01-15T00:44:43.094Z,57.90
2024-01-15T00:45:43.199Z,59.20
2024-01-15T00:46:43.251Z,59.12
2024-01-15T00:47:43.294Z,58.32
2024-01-15T00:48:43.358Z,59.32
2024-01-15T00:49:43.402Z,59.58
2024-01-15T00:50:43.381Z,58.58
2024-01-15T00:51:43.482Z,57.32
2024-01-15T00:52:43.468Z,58.54
2024-01-15T00:53:43.493Z,56.75
2024-01-15T00:54:43.573Z,60.30
2024-01-15T00:55:43.584Z,57.97
2024-01-15T00:56:43.617Z,59.52
2024-01-15T00:57:43.678Z,57.61
2024-01-15T00:58:43.700Z,57.09
2024-01-15T00:59:43.855Z,60.50
2024-01-15T01:00:43.872Z,59.28
2024-01-15T01:01:43.902Z,59.80
2024-01-15T01:02:43.958Z,56.59
2024-01-15T01:03:44.033Z,59.80
2024-01-15T01:04:43.989Z,56.69
2024-01-15T01:05:44.110Z,58.65
2024-01-15T01:06:44.096Z,57.70
2024-01-15T01:07:44.102Z,60.11
2024-01-15T01:08:44.170Z,59.97
2024-01-15T01:09:44.296Z,59.10
2024-01-15T01:10:44.295Z,59.90
2024-01-15T01:11:44.366Z,58.34
2024-01-15T01:12:44.516Z,60.05
2024-01-15T01:13:44.492Z,57.28
2024-01-15T01:14:44.520Z,58.25
2024-01-15T01:15:44.706Z,57.78
2024-01-15T01:16:44.656Z,59.42
2024-01-15T01:17:44.833Z,57.55
2024-01-15T01:18:44.950Z,58.12
2024-01-15T01:19:44.969Z,59.52
2024-01-15T01:20:44.907Z,59.73
2024-01-15T01:21:45.107Z,58.69
2024-01-15T01:22:45.017Z,58.92
2024-01-15T01:23:45.107Z,57.83
2024-01-15T01:24:45.177Z,57.55
2024-01-15T01:25:45.234Z,57.52
2024-01-15T01:26:45.245Z,57.66
2024-01-15T01:27:45.404Z,56.58
2024-01-15T01:28:45.368Z,58.46
2024-01-15T01:29:45.428Z,58.10
2024-01-15T01:30:45.595Z,57.88
2024-01-15T01:31:45.653Z,58.21
2024-01-15T01:32:45.673Z,59.91
2024-01-15T01:33:45.850Z,59.50
2024-01-15T01:34:45.796Z,58.66
2024-01-15T01:35:45.810Z,58.48
2024-01-15T01:36:45.881Z,57.13
2024-01-15T01:37:45.872Z,57.03
2024-01-15T01:38:45.932Z,59.91
2024-01-15T01:39:46.201Z,57.50
2024-01-15T01:40:46.054Z,58.95
2024-01-15T01:41:46.120Z,58.90
2024-01-15T01:42:46.296Z,58.24
2024-01-15T01:43:46.256Z,58.10
2024-01-15T01:44:46.338Z,60.25
2024-01-15T01:45:46.393Z,57.45
2024-01-15T01:46:46.442Z,59.18
2024-01-15T01:47:46.523Z,58.95
2024-01-15T01:48:46.627Z,57.54
2024-01-15T01:49:46.664Z,57.53
2024-01-15T01:50:47.356Z,58.66
2024-01-15T01:51:46.763Z,59.65
2024-01-15T01:52:46.781Z,58.88
2024-01-15T01:53:46.835Z,55.76
2024-01-15T01:54:46.990Z,58.94
2024-01-15T01:55:46.955Z,58.89
2024-01-15T01:56:47.034Z,59.37
2024-01-15T01:57:47.170Z,59.46
2024-01-15T01:58:47.142Z,60.44
2024-01-15T01:59:47.205Z,57.73
2024-01-15T02:00:47.304Z,59.08
2024-01-15T02:01:47.399Z,56.89
2024-01-15T02:02:47.394Z,58.48
2024-01-15T02:03:47.561Z,58.62
2024-01-15T02:04:47.542Z,57.87
2024-01-15T02:05:47.573Z,59.97
2024-01-15T02:06:47.689Z,57.82
2024-01-15T02:07:47.692Z,59.05
2024-01-15T02:08:47.748Z,57.06
2024-01-15T02:09:47.907Z,57.08
2024-01-15T02:10:47.882Z,59.67
2024-01-15T02:11:47.949Z,58.23
2024-01-15T02:12:48.080Z,58.84
2024-01-15T02:13:48.057Z,59.15
2024-01-15T02:14:48.098Z,59.31
2024-01-15T02:15:48.216Z,58.28
2024-01-15T02:16:48.220Z,58.24
2024-01-15T02:17:48.298Z,56.75
2024-01-15T02:18:48.428Z,57.60
2024-01-15T02:19:48.508Z,57.53
2024-01-15T02:20:48.448Z,56.29
2024-01-15T02:21:48.521Z,59.04
2024-01-15T02:22:48.556Z,59.10
2024-01-15T02:23:48.613Z,58.74
2024-01-15T02:24:48.745Z,57.90
2024-01-15T02:25:48.732Z,59.35
2024-01-15T02:26:48.796Z,56.75
2024-01-15T02:27:49.030Z,59.24
2024-01-15T02:28:48.913Z,59.43
2024-01-15T02:29:48.971Z,58.85
2024-01-15T02:30:49.172Z,58.70
2024-01-15T02:31:49.224Z,59.10
2024-01-15T02:32:49.221Z,59.37
2024-01-15T02:33:49.358Z,57.78
2024-01-15T02:34:49.511Z,59.46
2024-01-15T02:35:49.306Z,59.61
2024-01-15T02:36:49.425Z,59.38
2024-01-15T02:37:49.414Z,58.95
2024-01-15T02:38:49.445Z,57.25
2024-01-15T02:39:49.538Z,57.12
2024-01-15T02:40:49.557Z,59.47
2024-01-15T02:41:49.600Z,56.86
2024-01-15T02:42:49.705Z,58.50
2024-01-15T02:43:49.700Z,57.35
2024-01-15T02:44:49.773Z,58.38
2024-01-15T02:45:49.914Z,58.71
2024-01-15T02:46:49.864Z,57.46
2024-01-15T02:47:49.921Z,57.59
2024-01-15T02:48:49.981Z,59.33
2024-01-15T02:49:50.049Z,58.44
2024-01-15T02:50:50.074Z,58.23
2024-01-15T02:51:50.147Z,58.60
2024-01-15T02:52:50.162Z,59.24
2024-01-15T02:53:50.226Z,59.33
2024-01-15T02:54:50.310Z,59.33
2024-01-15T02:55:50.363Z,57.30
2024-01-15T02:56:50.378Z,58.39
2024-01-15T02:57:50.516Z,57.06
2024-01-15T02:58:50.447Z,58.65
2024-01-15T02:59:50.493Z,59.18
2024-01-15T03:00:50.599Z,59.28
2024-01-15T03:01:50.636Z,60.19
2024-01-15T03:02:50.738Z,57.18
2024-01-15T03:03:50.771Z,57.27
2024-01-15T03:04:50.754Z,56.24
2024-01-15T03:05:50.929Z,58.46
2024-01-15T03:06:50.943Z,58.17
2024-01-15T03:07:50.906Z,57.25
2024-01-15T03:08:50.951Z,59.20
2024-01-15T03:09:51.057Z,58.93
2024-01-15T03:10:51.083Z,58.10
2024-01-15T03:11:51.120Z,58.17
2024-01-15T03:12:51.199Z,58.64
2024-01-15T03:13:51.213Z,58.84
2024-01-15T03:14:51.272Z,58.23
2024-01-15T03:15:51.362Z,60.54
2024-01-15T03:16:51.410Z,58.27
2024-01-15T03:17:51.502Z,60.77
2024-01-15T03:18:51.579Z,57.58
2024-01-15T03:19:51.556Z,58.40
2024-01-15T03:20:51.599Z,58.43
2024-01-15T03:21:51.734Z,57.70
2024-01-15T03:22:51.671Z,59.19
2024-01-15T03:23:51.718Z,58.32
2024-01-15T03:24:51.821Z,57.81
2024-01-15T03:25:51.844Z,58.68
2024-01-15T03:26:51.889Z,60.42
2024-01-15T03:27:52.014Z,58.15
2024-01-15T03:28:52.008Z,59.12
2024-01-15T03:29:52.058Z,58.11
2024-01-15T03:30:52.228Z,59.65
2024-01-15T03:31:52.206Z,59.26
2024-01-15T03:32:52.269Z,59.84
2024-01-15T03:33:52.302Z,57.60
2024-01-15T03:34:52.344Z,58.95
2024-01-15T03:35:52.360Z,58.88
2024-01-15T03:36:52.423Z,57.19
2024-01-15T03:37:52.484Z,60.12
2024-01-15T03:38:52.524Z,57.38
2024-01-15T03:39:52.718Z,58.98
2024-01-15T03:40:52.736Z,58.04
2024-01-15T03:41:52.681Z,57.10
2024-01-15T03:42:52.802Z,58.69
2024-01-15T03:43:52.809Z,57.70
2024-01-15T03:44:52.872Z,57.27
2024-01-15T03:45:52.991Z,59.00
2024-01-15T03:46:53.043Z,58.00
2024-01-15T03:47:53.134Z,59.57
2024-01-15T03:48:53.161Z,58.46
2024-01-15T03:49:53.196Z,59.49
2024-01-15T03:50:53.215Z,58.36
2024-01-15T03:51:53.461Z,57.46
2024-01-15T03:52:53.478Z,56.38
2024-01-15T03:53:53.474Z,60.60
2024-01-15T03:54:53.560Z,58.59
2024-01-15T03:55:53.517Z,59.15
2024-01-15T03:56:53.535Z,59.02
2024-01-15T03:57:53.645Z,58.65
2024-01-15T03:58:53.634Z,57.39
2024-01-15T03:59:53.706Z,58.92
2024-01-15T04:00:53.823Z,59.35
2024-01-15T04:01:53.796Z,57.23
2024-01-15T04:02:53.850Z,58.54
2024-01-15T04:03:53.937Z,58.88
2024-01-15T04:04:54.006Z,58.35
2024-01-15T04:05:54.006Z,58.33
2024-01-15T04:06:54.068Z,59.17
2024-01-15T04:07:54.086Z,61.44
2024-01-15T04:08:54.126Z,58.10
2024-01-15T04:09:54.261Z,59.54
2024-01-15T04:10:54.240Z,57.60
2024-01-15T04:11:54.279Z,59.13
2024-01-15T04:12:54.327Z,60.95
2024-01-15T04:13:54.411Z,57.89
2024-01-15T04:14:54.416Z,59.30
2024-01-15T04:15:54.491Z,57.82
2024-01-15T04:16:54.508Z,59.27
2024-01-15T04:17:54.559Z,60.02
2024-01-15T04:18:54.631Z,59.97
2024-01-15T04:19:54.703Z,59.97
2024-01-15T04:20:54.658Z,59.50
2024-01-15T04:21:54.783Z,58.71
2024-01-15T04:22:54.747Z,59.27
2024-01-15T04:23:54.816Z,60.54
2024-01-15T04:24:54.913Z,58.89
2024-01-15T04:25:54.896Z,58.35
2024-01-15T04:26:55.181Z,60.18
2024-01-15T04:27:55.030Z,61.40
2024-01-15T04:28:55.031Z,59.21
2024-01-15T04:29:55.099Z,60.11
2024-01-15T04:30:55.282Z,60.14
2024-01-15T04:31:55.226Z,60.12
2024-01-15T04:32:55.276Z,58.25
2024-01-15T04:33:55.417Z,60.30
2024-01-15T04:34:55.324Z,60.90
2024-01-15T04:35:55.368Z,60.39
2024-01-15T04:36:55.464Z,60.53
2024-01-15T04:37:55.465Z,58.64
2024-01-15T04:38:55.508Z,60.12
2024-01-15T04:39:55.596Z,60.10
2024-01-15T04:40:58.405Z,59.67
2024-01-15T04:41:55.598Z,61.05
2024-01-15T04:42:55.601Z,60.96
2024-01-15T04:43:55.586Z,60.88
2024-01-15T04:44:55.580Z,59.23
2024-01-15T04:45:55.632Z,62.03
2024-01-15T04:46:55.570Z,59.75
2024-01-15T04:47:55.565Z,59.89
2024-01-15T04:48:55.648Z,61.16
2024-01-15T04:49:55.598Z,59.41
2024-01-15T04:50:55.544Z,60.40
2024-01-15T04:51:55.600Z,59.56
2024-01-15T04:52:55.544Z,60.94
2024-01-15T04:53:55.541Z,61.22
2024-01-15T04:54:55.579Z,60.68
2024-01-15T04:55:55.533Z,60.43
2024-01-15T04:56:55.536Z,60.15
2024-01-15T04:57:55.564Z,61.14
2024-01-15T04:58:55.522Z,60.86
2024-01-15T04:59:55.516Z,60.66
2024-01-15T05:01:03.061Z,50.00
2024-01-15T05:02:02.848Z,50.00
2024-01-15T05:03:02.890Z,50.00
2024-01-15T05:04:03.012Z,50.00
2024-01-15T05:05:02.834Z,50.00
2024-01-15T05:06:02.902Z,51.69
2024-01-15T05:07:02.937Z,50.62
2024-01-15T05:08:02.817Z,51.27
2024-01-15T05:09:02.823Z,51.54
2024-01-15T05:10:02.931Z,52.35
2024-01-15T05:11:02.813Z,50.98
2024-01-15T05:12:02.799Z,50.87
2024-01-15T05:13:02.790Z,50.42
2024-01-15T05:14:02.800Z,51.07
2024-01-15T05:15:02.775Z,52.64
2024-01-15T05:16:02.809Z,51.92
2024-01-15T05:17:02.771Z,50.84
2024-01-15T05:18:02.837Z,51.43
2024-01-15T05:19:02.850Z,51.02
2024-01-15T05:20:02.956Z,52.08
2024-01-15T05:21:02.710Z,51.36
2024-01-15T05:22:02.709Z,52.30
2024-01-15T05:23:02.693Z,50.81
2024-01-15T05:24:02.672Z,52.17
2024-01-15T05:25:02.663Z,50.07
2024-01-15T05:26:02.638Z,53.07
2024-01-15T05:27:02.657Z,51.74
2024-01-15T05:28:02.629Z,52.82
2024-01-15T05:29:02.618Z,52.46
2024-01-15T05:30:02.592Z,51.36
2024-01-15T05:31:02.682Z,53.17
2024-01-15T05:32:03.100Z,51.94
2024-01-15T05:33:02.639Z,52.30
2024-01-15T05:34:02.685Z,50.00
2024-01-15T05:35:02.709Z,53.25
2024-01-15T05:36:02.705Z,52.38
2024-01-15T05:37:02.770Z,52.80
2024-01-15T05:38:02.979Z,53.69
2024-01-15T05:39:02.841Z,52.05
2024-01-15T05:40:02.908Z,54.08
2024-01-15T05:41:02.922Z,51.94
2024-01-15T05:42:02.983Z,52.71
2024-01-15T05:43:03.016Z,50.95
2024-01-15T05:44:03.061Z,51.55
2024-01-15T05:45:03.108Z,52.79
2024-01-15T05:46:03.231Z,52.24
2024-01-15T05:47:03.197Z,50.00
2024-01-15T05:48:03.300Z,54.45
2024-01-15T05:49:03.423Z,52.99
2024-01-15T05:50:03.438Z,52.36
2024-01-15T05:51:03.357Z,52.12
2024-01-15T05:52:03.392Z,53.55
2024-01-15T05:53:03.432Z,52.22
2024-01-15T05:54:03.481Z,52.64
2024-01-15T05:55:03.524Z,52.65
2024-01-15T05:56:03.545Z,53.83
2024-01-15T05:57:03.584Z,52.62
2024-01-15T05:58:03.601Z,51.25
2024-01-15T05:59:03.669Z,53.47
2024-01-15T06:00:03.777Z,52.47
2024-01-15T06:01:03.784Z,52.41
2024-01-15T06:02:03.788Z,52.24
2024-01-15T06:03:03.825Z,50.65
2024-01-15T06:04:03.995Z,51.86
2024-01-15T06:05:03.973Z,52.84
2024-01-15T06:06:04.201Z,54.49
2024-01-15T06:07:04.045Z,51.86
2024-01-15T06:08:04.016Z,50.60
2024-01-15T06:09:04.071Z,53.28
2024-01-15T06:10:04.093Z,51.80
2024-01-15T06:11:04.140Z,51.98
2024-01-15T06:12:04.172Z,52.30
2024-01-15T06:13:04.216Z,52.38
2024-01-15T06:14:04.262Z,51.41
2024-01-15T06:15:04.302Z,51.69
2024-01-15T06:16:06.692Z,53.46
2024-01-15T06:17:04.438Z,51.95
2024-01-15T06:18:04.560Z,53.10
2024-01-15T06:19:04.714Z,51.23
2024-01-15T06:20:04.633Z,52.65
2024-01-15T06:21:04.594Z,51.60
2024-01-15T06:22:04.668Z,52.81
2024-01-15T06:23:04.638Z,52.29
2024-01-15T06:24:04.662Z,51.75
2024-01-15T06:25:04.700Z,51.83
2024-01-15T06:26:04.737Z,51.18
2024-01-15T06:27:04.769Z,51.02
2024-01-15T06:28:04.833Z,55.06
2024-01-15T06:29:04.881Z,52.24
2024-01-15T06:30:04.994Z,52.76
2024-01-15T06:31:05.063Z,52.81
2024-01-15T06:32:05.140Z,53.42
2024-01-15T06:33:05.230Z,53.07
2024-01-15T06:34:05.229Z,51.57
2024-01-15T06:35:05.080Z,50.92
2024-01-15T06:36:06.081Z,44.78
2024-01-15T06:37:05.084Z,42.54
2024-01-15T06:38:05.068Z,42.59
2024-01-15T06:39:05.072Z,41.31
2024-01-15T06:40:05.102Z,40.27
2024-01-15T06:41:05.076Z,50.00
2024-01-15T06:42:05.076Z,50.28
2024-01-15T06:43:05.076Z,48.97
2024-01-15T06:44:05.088Z,50.00
2024-01-15T06:45:05.076Z,54.86
2024-01-15T06:46:07.549Z,55.66
2024-01-15T06:47:05.088Z,59.65
2024-01-15T06:48:05.142Z,67.89
2024-01-15T06:49:05.196Z,69.70
2024-01-15T06:50:05.127Z,67.92
2024-01-15T06:51:05.092Z,71.58
2024-01-15T06:52:05.084Z,75.50
2024-01-15T06:53:05.065Z,79.25
2024-01-15T06:54:05.058Z,82.05
2024-01-15T06:55:05.061Z,85.17
2024-01-15T06:56:05.050Z,87.96
2024-01-15T06:57:05.052Z,91.16
2024-01-15T06:58:05.036Z,94.40
2024-01-15T06:59:05.025Z,97.11
2024-01-15T07:00:05.013Z,101.29
2024-01-15T07:01:05.040Z,102.95
2024-01-15T07:02:05.003Z,105.77
2024-01-15T07:03:05.028Z,109.28
2024-01-15T07:04:05.021Z,111.99
2024-01-15T07:05:05.004Z,115.83
2024-01-15T07:06:04.960Z,119.21
2024-01-15T07:07:04.952Z,121.64
2024-01-15T07:08:04.946Z,125.11
2024-01-15T07:09:04.934Z,128.82
2024-01-15T07:10:04.907Z,132.64
2024-01-15T07:11:04.893Z,134.03
2024-01-15T07:12:04.880Z,136.25
2024-01-15T07:13:04.881Z,140.48
2024-01-15T07:14:04.857Z,143.39
2024-01-15T07:15:05.495Z,146.64
2024-01-15T07:16:04.856Z,149.12
2024-01-15T07:17:04.809Z,151.28
2024-01-15T07:18:04.833Z,153.38
2024-01-15T07:19:04.890Z,158.43
2024-01-15T07:20:04.830Z,160.69
2024-01-15T07:21:04.741Z,165.02
2024-01-15T07:22:04.781Z,167.90
2024-01-15T07:23:04.713Z,170.09
2024-01-15T07:24:04.701Z,173.54
2024-01-15T07:25:04.734Z,179.66
2024-01-15T07:26:04.670Z,183.32
2024-01-15T07:27:04.686Z,182.82
2024-01-15T07:28:04.641Z,185.86
2024-01-15T07:29:04.636Z,189.36
2024-01-15T07:30:05.537Z,193.27
2024-01-15T07:31:05.673Z,193.33
2024-01-15T07:32:04.590Z,193.86
2024-01-15T07:33:04.638Z,194.26
2024-01-15T07:34:04.580Z,196.22
2024-01-15T07:35:04.541Z,201.43
2024-01-15T07:36:04.525Z,199.18
2024-01-15T07:37:04.504Z,198.46
2024-01-15T07:38:04.482Z,199.32
2024-01-15T07:39:04.471Z,198.08
2024-01-15T07:40:04.524Z,199.22
2024-01-15T07:41:04.453Z,200.00
2024-01-15T07:42:04.452Z,198.85
2024-01-15T07:43:04.429Z,198.28
2024-01-15T07:44:04.419Z,198.18
2024-01-15T07:45:04.553Z,197.51
2024-01-15T07:46:04.542Z,198.54
2024-01-15T07:47:04.506Z,199.00
2024-01-15T07:48:04.661Z,198.43
2024-01-15T07:49:04.661Z,198.61
2024-01-15T07:50:06.391Z,199.42
2024-01-15T07:51:04.644Z,199.45
2024-01-15T07:52:04.689Z,198.38
2024-01-15T07:53:04.725Z,197.42
2024-01-15T07:54:04.776Z,199.77
2024-01-15T07:55:05.254Z,197.57
2024-01-15T07:56:04.836Z,196.58
2024-01-15T07:57:04.878Z,196.27
2024-01-15T07:58:11.916Z,198.36
2024-01-15T07:59:05.924Z,198.40
2024-01-15T08:00:04.916Z,198.40
2024-01-15T08:01:04.975Z,198.40
2024-01-15T08:02:04.904Z,199.44
2024-01-15T08:03:04.899Z,199.45
2024-01-15T08:04:04.953Z,197.50
2024-01-15T08:05:04.944Z,198.75
2024-01-15T08:06:05.035Z,196.51
2024-01-15T08:07:04.885Z,197.70
2024-01-15T08:08:05.854Z,196.80
2024-01-15T08:09:04.912Z,195.03
2024-01-15T08:10:04.865Z,197.11
2024-01-15T08:11:04.810Z,196.98
2024-01-15T08:12:04.821Z,195.93
2024-01-15T08:13:04.815Z,194.21
2024-01-15T08:14:04.805Z,195.57
2024-01-15T08:15:04.785Z,194.20
2024-01-15T08:16:04.809Z,194.36
2024-01-15T08:17:04.827Z,193.62
2024-01-15T08:18:04.958Z,194.39
2024-01-15T08:19:05.046Z,192.86
2024-01-15T08:20:05.079Z,193.48
2024-01-15T08:21:05.036Z,193.13
2024-01-15T08:22:05.093Z,192.49
2024-01-15T08:23:05.154Z,192.97
2024-01-15T08:24:05.236Z,200.00
2024-01-15T08:25:05.221Z,200.04
2024-01-15T08:26:05.255Z,199.90
2024-01-15T08:27:05.297Z,198.98
2024-01-15T08:28:05.317Z,200.00
2024-01-15T08:29:06.978Z,200.10
2024-01-15T08:30:05.321Z,200.57
2024-01-15T08:31:07.092Z,200.21
2024-01-15T08:32:05.324Z,200.94
2024-01-15T08:33:11.452Z,202.36
2024-01-15T08:34:07.069Z,200.31
2024-01-15T08:35:05.352Z,201.25
2024-01-15T08:36:05.194Z,203.11
2024-01-15T08:37:05.176Z,205.11
2024-01-15T08:38:05.176Z,209.35
2024-01-15T08:39:05.236Z,200.00
2024-01-15T08:40:06.027Z,199.21
2024-01-15T08:41:05.131Z,198.87
2024-01-15T08:42:05.114Z,198.99
2024-01-15T08:43:05.104Z,198.39
2024-01-15T08:44:05.094Z,199.33
2024-01-15T08:45:05.227Z,199.71
2024-01-15T08:46:05.130Z,199.65
2024-01-15T08:47:05.559Z,200.00
2024-01-15T08:48:05.120Z,198.21
2024-01-15T08:49:05.073Z,198.86
2024-01-15T08:50:05.035Z,199.41
2024-01-15T08:51:05.562Z,200.00
2024-01-15T08:52:04.991Z,200.00
2024-01-15T08:53:04.989Z,199.72
2024-01-15T08:54:04.936Z,200.00
2024-01-15T08:55:05.566Z,199.52
2024-01-15T08:56:04.914Z,200.00
2024-01-15T08:57:04.931Z,198.68
2024-01-15T08:58:04.948Z,199.73
2024-01-15T08:59:05.007Z,199.02
2024-01-15T09:00:05.990Z,200.00
2024-01-15T09:01:05.220Z,199.64
2024-01-15T09:02:05.153Z,199.43
2024-01-15T09:03:05.990Z,199.41
2024-01-15T09:04:05.354Z,198.97
2024-01-15T09:05:05.508Z,198.96
2024-01-15T09:06:05.331Z,198.03
2024-01-15T09:07:05.393Z,200.00
2024-01-15T09:08:05.427Z,199.69
2024-01-15T09:09:05.512Z,199.12
2024-01-15T09:10:05.546Z,198.50
2024-01-15T09:11:05.594Z,199.93
2024-01-15T09:12:05.648Z,198.92
2024-01-15T09:13:05.702Z,199.47
2024-01-15T09:14:05.741Z,199.35
2024-01-15T09:15:05.890Z,197.97
2024-01-15T09:16:06.188Z,198.70
2024-01-15T09:17:05.889Z,199.30
2024-01-15T09:18:08.231Z,199.73
2024-01-15T09:19:05.973Z,199.17
2024-01-15T09:20:05.900Z,197.96
2024-01-15T09:21:05.854Z,197.26
2024-01-15T09:22:05.814Z,197.17
2024-01-15T09:23:05.798Z,194.24
2024-01-15T09:24:05.765Z,188.97
2024-01-15T09:25:05.851Z,190.66
2024-01-15T09:26:06.578Z,189.22
2024-01-15T09:27:05.755Z,187.35
2024-01-15T09:28:05.684Z,182.85
2024-01-15T09:29:05.662Z,188.12
2024-01-15T09:30:05.672Z,181.99
2024-01-15T09:31:05.819Z,181.09
2024-01-15T09:32:05.689Z,180.63
2024-01-15T09:33:05.647Z,180.72
2024-01-15T09:34:06.676Z,180.79
2024-01-15T09:35:05.563Z,180.75
2024-01-15T09:36:05.608Z,181.09
2024-01-15T09:37:05.539Z,182.32
2024-01-15T09:38:05.527Z,182.97
2024-01-15T09:39:05.518Z,183.64
2024-01-15T09:40:05.454Z,186.41
2024-01-15T09:41:05.428Z,187.16
2024-01-15T09:42:05.378Z,188.27
2024-01-15T09:43:05.379Z,187.76
2024-01-15T09:44:05.280Z,186.53
2024-01-15T09:45:05.231Z,189.40
2024-01-15T09:46:05.203Z,191.46
2024-01-15T09:47:05.095Z,193.34
2024-01-15T09:48:05.067Z,195.92
2024-01-15T09:49:05.095Z,199.68
2024-01-15T09:50:05.077Z,199.03
2024-01-15T09:51:04.943Z,200.00
2024-01-15T09:52:09.467Z,199.93
2024-01-15T09:53:05.830Z,200.00
2024-01-15T09:54:05.614Z,200.10
2024-01-15T09:55:04.782Z,201.37
2024-01-15T09:56:04.568Z,204.59
2024-01-15T09:57:04.469Z,209.97
2024-01-15T09:58:04.468Z,203.00
2024-01-15T09:59:04.305Z,199.40
2024-01-15T10:00:04.234Z,200.00
2024-01-15T10:01:07.107Z,198.96
2024-01-15T10:02:04.062Z,199.04
2024-01-15T10:03:03.952Z,199.02
2024-01-15T10:04:03.978Z,196.22
2024-01-15T10:05:03.887Z,191.69
2024-01-15T10:06:03.778Z,188.14
2024-01-15T10:07:03.751Z,185.59
2024-01-15T10:08:03.607Z,182.68
2024-01-15T10:09:03.542Z,182.06
2024-01-15T10:10:03.513Z,178.94
2024-01-15T10:11:03.442Z,176.80
2024-01-15T10:12:03.397Z,173.37
2024-01-15T10:13:03.375Z,168.96
2024-01-15T10:14:03.307Z,164.64
2024-01-15T10:15:03.325Z,164.06
2024-01-15T10:16:03.273Z,163.03
2024-01-15T10:17:03.165Z,168.68
2024-01-15T10:18:03.215Z,176.44
2024-01-15T10:19:03.173Z,181.93
2024-01-15T10:20:03.045Z,190.04
2024-01-15T10:21:02.898Z,195.50
2024-01-15T10:22:02.872Z,198.60
2024-01-15T10:23:02.729Z,199.71
2024-01-15T10:24:02.632Z,199.65
2024-01-15T10:25:02.545Z,199.45
2024-01-15T10:26:02.427Z,199.96
2024-01-15T10:27:03.116Z,199.82
2024-01-15T10:28:02.320Z,199.68
2024-01-15T10:29:02.099Z,199.89
2024-01-15T10:30:02.018Z,198.88
2024-01-15T10:31:02.167Z,198.87
2024-01-15T10:32:02.063Z,199.78
2024-01-15T10:33:02.005Z,199.33
2024-01-15T10:34:01.985Z,199.46
2024-01-15T10:35:01.988Z,198.97
2024-01-15T10:36:01.911Z,199.66
2024-01-15T10:37:01.895Z,199.85
2024-01-15T10:38:01.854Z,199.57
2024-01-15T10:39:01.801Z,198.82
2024-01-15T10:40:01.784Z,198.93
2024-01-15T10:41:01.743Z,197.77
2024-01-15T10:42:01.695Z,199.40
2024-01-15T10:43:01.718Z,199.08
2024-01-15T10:44:01.620Z,200.00
2024-01-15T10:45:01.872Z,199.77
2024-01-15T10:46:01.599Z,197.39
2024-01-15T10:47:01.465Z,194.08
2024-01-15T10:48:01.644Z,189.72
2024-01-15T10:49:01.406Z,185.93
2024-01-15T10:50:01.576Z,183.80
2024-01-15T10:51:01.255Z,181.55
2024-01-15T10:52:01.329Z,180.41
2024-01-15T10:53:01.206Z,177.20
2024-01-15T10:54:01.203Z,174.38
2024-01-15T10:55:05.267Z,172.44
2024-01-15T10:56:02.152Z,172.47
2024-01-15T10:57:01.095Z,171.36
2024-01-15T10:58:01.112Z,169.96
2024-01-15T10:59:01.220Z,170.40
2024-01-15T11:00:00.999Z,169.63
2024-01-15T11:01:01.065Z,170.02
2024-01-15T11:02:01.011Z,169.62
2024-01-15T11:03:00.865Z,169.70
2024-01-15T11:04:00.949Z,170.08
2024-01-15T11:05:00.859Z,170.04
2024-01-15T11:06:00.820Z,170.37
2024-01-15T11:07:00.799Z,171.46
2024-01-15T11:08:00.748Z,170.07
2024-01-15T11:09:00.753Z,172.02
2024-01-15T11:10:00.730Z,170.82
2024-01-15T11:11:00.707Z,171.54
2024-01-15T11:12:00.653Z,171.91
2024-01-15T11:13:00.825Z,171.68
2024-01-15T11:14:00.643Z,164.01
2024-01-15T11:15:00.621Z,158.77
2024-01-15T11:16:00.850Z,154.56
2024-01-15T11:17:00.676Z,146.92
2024-01-15T11:18:00.893Z,143.12
2024-01-15T11:19:01.712Z,140.71
2024-01-15T11:20:00.809Z,135.20
2024-01-15T11:21:00.706Z,131.90
2024-01-15T11:22:00.860Z,130.69
2024-01-15T11:23:00.708Z,130.70
2024-01-15T11:24:00.836Z,132.81
2024-01-15T11:25:00.933Z,131.44
2024-01-15T11:26:00.960Z,131.56
2024-01-15T11:27:00.956Z,131.37
2024-01-15T11:28:01.025Z,131.28
2024-01-15T11:29:00.984Z,131.69
2024-01-15T11:30:01.024Z,131.13
2024-01-15T11:31:01.153Z,132.30
2024-01-15T11:32:01.273Z,132.90
2024-01-15T11:33:01.274Z,134.89
2024-01-15T11:34:01.281Z,135.68
2024-01-15T11:35:01.450Z,135.36
2024-01-15T11:36:01.241Z,135.58
2024-01-15T11:37:01.366Z,136.57
2024-01-15T11:38:01.301Z,136.63
2024-01-15T11:39:01.326Z,138.71
2024-01-15T11:40:01.387Z,138.82
2024-01-15T11:41:01.380Z,138.99
2024-01-15T11:42:01.560Z,140.25
2024-01-15T11:43:01.688Z,141.15
2024-01-15T11:44:01.460Z,143.00
2024-01-15T11:45:01.599Z,143.60
2024-01-15T11:46:01.590Z,143.80
2024-01-15T11:47:01.553Z,146.34
2024-01-15T11:48:01.882Z,145.74
2024-01-15T11:49:01.722Z,147.07
2024-01-15T11:50:01.779Z,149.59
2024-01-15T11:51:01.675Z,150.29
2024-01-15T11:52:01.719Z,150.66
2024-01-15T11:53:05.419Z,151.12
2024-01-15T11:54:02.694Z,151.19
2024-01-15T11:55:01.660Z,151.67
2024-01-15T11:56:01.623Z,152.70
2024-01-15T11:57:02.160Z,154.90
2024-01-15T11:58:01.654Z,157.82
2024-01-15T11:59:04.427Z,159.12
2024-01-15T12:00:01.529Z,161.53
2024-01-15T12:01:01.711Z,160.94
2024-01-15T12:02:01.455Z,162.24
2024-01-15T12:03:01.413Z,163.83
2024-01-15T12:04:01.489Z,164.43
2024-01-15T12:05:01.414Z,165.19
2024-01-15T12:06:01.400Z,165.36
2024-01-15T12:07:01.386Z,166.76
2024-01-15T12:08:01.272Z,168.08
2024-01-15T12:09:01.246Z,168.24
2024-01-15T12:10:01.273Z,167.41
2024-01-15T12:11:01.343Z,168.17
2024-01-15T12:12:01.162Z,167.70
2024-01-15T12:13:01.270Z,168.61
2024-01-15T12:14:01.154Z,168.42
2024-01-15T12:15:01.252Z,168.42
2024-01-15T12:16:01.145Z,167.62
2024-01-15T12:17:03.649Z,167.84
2024-01-15T12:18:01.169Z,167.89
2024-01-15T12:19:01.160Z,167.98
2024-01-15T12:20:00.998Z,167.87
2024-01-15T12:21:00.929Z,168.29
2024-01-15T12:22:00.900Z,167.27
2024-01-15T12:23:02.846Z,167.67
2024-01-15T12:24:00.853Z,167.72
2024-01-15T12:25:00.826Z,167.72
2024-01-15T12:26:00.807Z,168.05
2024-01-15T12:27:00.779Z,167.91
2024-01-15T12:28:00.770Z,166.53
2024-01-15T12:29:00.725Z,166.52
2024-01-15T12:30:00.701Z,166.52
2024-01-15T12:31:00.782Z,166.49
2024-01-15T12:32:00.660Z,166.36
2024-01-15T12:33:00.658Z,167.51
2024-01-15T12:34:00.684Z,165.25
2024-01-15T12:35:03.106Z,166.38
2024-01-15T12:36:00.585Z,165.02
2024-01-15T12:37:00.550Z,166.41
2024-01-15T12:38:00.537Z,165.05
2024-01-15T12:39:00.518Z,164.94
2024-01-15T12:40:00.642Z,165.25
2024-01-15T12:41:00.545Z,163.95
2024-01-15T12:42:00.459Z,165.28